KHKA

Blytheville Municipal Airport

Blytheville, Arkansas, USA
METAR KHKA 161353Z AUTO 28005KT 10SM CLR 05/03 A3026 RMK AO2 SLP247 T00500028 $
Observed Flight Rules
Dec-16 @ 13:53 UTC (11 minutes ago) Visual Flight Rules
Wind Visibility Clouds
280° at 5 knots 10 miles
  • Clear skies
Temperatures Readings
Current 5°C / 41°F
Dewpoint 3°C / 37°F
Humidity 87%
Altimeter 30.26" Hg
Pressure 1024.7 hPa
Elevation 78
METAR KHKA 161353Z AUTO 28005KT 10SM CLR 05/03 A3026 RMK AO2 SLP247 T00500028 $
Observed Flight Rules
Dec-16 @ 13:53 UTC
(11 minutes ago)
VFR
Wind Visibility
280° at 5 knots 10 miles
Clouds
  • Clear skies
Temperature Dewpoint
5°C / 41°F 3°C / 37°F
Humidity Altimeter Pressure
87% 30.26" Hg 1024.7 hPa